Time;durP1;ratioP1;P1;durP2;ratioP2;P2;SDS_P1;SDS_P2;PMS_P1;PMS_P2;Temp;Humidity;BMP_temperature;BMP_pressure;BME280_temperature;BME280_humidity;BME280_pressure;Samples;Min_cycle;Max_cycle;Signal;HPM_P1;HPM_P2
2021/10/31 00:00:10;;;;;;;26.60;12.50;;;;;;;11.89;49.22;99190.44;113486;1193;95390;-69
2021/10/31 00:02:57;;;;;;;25.20;12.60;;;;;;;11.87;49.25;99192.02;113565;1192;109775;-68
2021/10/31 00:05:26;;;;;;;24.10;10.80;;;;;;;11.85;49.28;99191.83;113473;1192;97627;-69
2021/10/31 00:07:54;;;;;;;23.50;11.40;;;;;;;11.81;49.40;99192.14;113712;1193;97527;-69
2021/10/31 00:10:22;;;;;;;24.30;11.50;;;;;;;11.77;49.46;99199.01;113454;1193;111481;-69
2021/10/31 00:12:50;;;;;;;25.40;12.00;;;;;;;11.73;49.45;99202.98;113366;1193;96015;-72
2021/10/31 00:15:18;;;;;;;26.30;11.60;;;;;;;11.71;49.46;99209.40;113335;1193;107535;-69
2021/10/31 00:17:47;;;;;;;28.80;13.30;;;;;;;11.68;49.34;99211.74;113345;1193;97574;-69
2021/10/31 00:20:15;;;;;;;26.10;11.40;;;;;;;11.67;49.47;99212.20;113460;1192;97534;-67
2021/10/31 00:22:45;;;;;;;26.40;11.60;;;;;;;11.66;49.39;99215.98;113486;1192;110375;-71
2021/10/31 00:25:14;;;;;;;23.90;11.90;;;;;;;11.64;49.49;99215.93;113537;1192;97515;-70
2021/10/31 00:27:43;;;;;;;24.70;12.00;;;;;;;11.66;49.41;99212.96;113408;1193;107549;-70
2021/10/31 00:30:11;;;;;;;24.60;11.50;;;;;;;11.68;49.45;99218.48;113452;1193;97563;-71
2021/10/31 00:32:39;;;;;;;23.90;10.80;;;;;;;11.71;49.39;99215.25;113524;1192;97565;-70
2021/10/31 00:35:07;;;;;;;25.40;12.30;;;;;;;11.76;49.44;99218.06;113524;1192;111014;-70
2021/10/31 00:37:35;;;;;;;24.10;11.80;;;;;;;11.81;49.34;99214.89;113531;1192;95047;-72
2021/10/31 00:40:06;;;;;;;28.00;12.70;;;;;;;11.84;49.28;99214.82;113381;1193;107500;-72
2021/10/31 00:42:34;;;;;;;25.00;12.20;;;;;;;11.88;49.41;99216.81;113531;1192;95138;-71
2021/10/31 00:45:04;;;;;;;27.30;12.60;;;;;;;11.91;49.39;99216.41;113582;1192;97585;-71
2021/10/31 00:47:32;;;;;;;23.30;11.10;;;;;;;11.92;49.25;99217.95;113494;1193;110106;-71
2021/10/31 00:50:00;;;;;;;25.10;12.30;;;;;;;11.95;49.28;99219.02;113581;1192;95615;-70
2021/10/31 00:52:31;;;;;;;28.20;12.10;;;;;;;11.98;49.27;99222.70;113489;1192;107270;-66
2021/10/31 00:54:59;;;;;;;24.60;11.30;;;;;;;11.99;49.37;99224.40;113489;1192;94997;-69
2021/10/31 00:57:27;;;;;;;28.50;12.40;;;;;;;12.00;49.19;99222.69;113530;1193;95017;-70
2021/10/31 00:59:56;;;;;;;25.20;11.60;;;;;;;12.01;49.24;99225.14;113433;1193;111182;-82
2021/10/31 01:02:26;;;;;;;25.90;13.20;;;;;;;12.00;49.22;99227.52;113546;1192;95703;-73
2021/10/31 01:04:57;;;;;;;23.60;11.50;;;;;;;11.98;49.21;99220.36;113626;1192;107550;-71
2021/10/31 01:07:37;;;;;;;24.40;12.60;;;;;;;11.96;49.14;99219.59;113510;1192;95017;-70
2021/10/31 01:10:40;;;;;;;24.60;11.60;;;;;;;11.94;49.24;99216.58;113612;1192;97657;-69
2021/10/31 01:13:17;;;;;;;23.80;12.00;;;;;;;11.88;49.17;99210.61;113780;1192;110878;-69
2021/10/31 01:16:17;;;;;;;28.20;12.80;;;;;;;11.80;49.05;99205.73;113916;1192;97545;-70
2021/10/31 01:19:04;;;;;;;25.00;11.80;;;;;;;11.65;49.11;99204.36;113254;1192;107498;-69
2021/10/31 01:21:51;;;;;;;23.70;11.80;;;;;;;11.50;48.99;99204.34;113878;1193;97649;-69
2021/10/31 01:24:40;;;;;;;25.80;12.20;;;;;;;11.45;49.17;99207.95;113542;1192;97594;-69
2021/10/31 01:27:52;;;;;;;27.40;12.20;;;;;;;11.43;49.19;99207.68;113882;1192;111224;-69
2021/10/31 01:30:36;;;;;;;22.90;11.50;;;;;;;11.41;49.20;99206.79;113934;1192;97645;-69
2021/10/31 01:33:34;;;;;;;25.10;12.30;;;;;;;11.40;49.11;99205.62;113855;1193;108053;-70
2021/10/31 01:36:29;;;;;;;24.70;11.80;;;;;;;11.37;49.14;99202.30;113910;1192;98317;-70
2021/10/31 01:39:27;;;;;;;28.20;12.80;;;;;;;11.34;49.17;99194.73;113237;1196;97636;-69
2021/10/31 01:42:14;;;;;;;26.30;12.90;;;;;;;11.31;49.09;99191.36;113509;1192;111163;-69
2021/10/31 01:44:58;;;;;;;27.30;12.70;;;;;;;11.29;49.18;99189.52;113392;1193;97659;-68
2021/10/31 01:47:46;;;;;;;24.30;12.40;;;;;;;11.28;49.20;99186.84;113364;1193;108284;-68
2021/10/31 01:50:36;;;;;;;25.10;12.90;;;;;;;11.25;49.17;99183.98;113353;1193;95064;-70
2021/10/31 01:53:14;;;;;;;23.60;11.70;;;;;;;11.23;49.28;99189.64;114221;1193;97562;-71
2021/10/31 01:55:48;;;;;;;23.60;12.20;;;;;;;11.23;49.20;99185.79;113485;1193;111191;-70
2021/10/31 01:58:20;;;;;;;25.30;13.10;;;;;;;11.21;49.17;99188.02;113433;1193;94997;-70
2021/10/31 02:00:52;;;;;;;23.70;12.00;;;;;;;11.21;49.23;99190.88;113423;1193;107502;-69
2021/10/31 02:03:23;;;;;;;22.20;9.50;;;;;;;11.20;49.24;99191.46;113446;1193;97546;-70
2021/10/31 02:05:54;;;;;;;26.70;13.30;;;;;;;11.17;49.12;99197.17;113467;1193;97566;-68
2021/10/31 02:08:23;;;;;;;27.20;13.70;;;;;;;11.17;49.24;99196.30;113451;1193;111172;-70
2021/10/31 02:10:54;;;;;;;26.40;13.50;;;;;;;11.17;49.33;99198.27;113454;1193;97575;-70
2021/10/31 02:13:27;;;;;;;29.80;12.70;;;;;;;11.15;49.33;99200.71;113513;1192;106708;-68
2021/10/31 02:15:58;;;;;;;28.30;14.60;;;;;;;11.12;49.26;99195.09;113583;1192;97576;-69
2021/10/31 02:18:27;;;;;;;24.80;12.60;;;;;;;11.09;49.32;99190.48;113522;1192;97624;-70
2021/10/31 02:20:57;;;;;;;27.50;14.40;;;;;;;11.06;49.40;99179.38;113540;1193;111161;-69
2021/10/31 02:23:28;;;;;;;27.70;13.70;;;;;;;11.01;49.44;99168.85;113495;1193;97652;-70
2021/10/31 02:25:57;;;;;;;28.90;13.60;;;;;;;10.98;49.40;99166.08;113796;1193;105564;-69
2021/10/31 02:28:26;;;;;;;29.00;13.80;;;;;;;10.98;49.45;99165.75;113789;1193;97616;-66
2021/10/31 02:30:55;;;;;;;26.10;13.50;;;;;;;10.99;49.47;99160.15;113921;1193;96515;-70
2021/10/31 02:33:24;;;;;;;26.20;12.60;;;;;;;11.02;49.77;99156.36;113865;1192;112186;-71
2021/10/31 02:35:51;;;;;;;26.30;12.70;;;;;;;11.05;49.60;99150.83;113897;1193;97600;-70
2021/10/31 02:38:20;;;;;;;27.10;13.70;;;;;;;11.08;49.68;99154.33;113615;1192;106739;-71
2021/10/31 02:40:48;;;;;;;28.10;12.50;;;;;;;11.11;49.60;99157.14;113507;1192;95032;-70
2021/10/31 02:43:15;;;;;;;29.10;13.90;;;;;;;11.13;49.70;99158.45;113593;1192;95042;-70
2021/10/31 02:45:44;;;;;;;24.70;12.50;;;;;;;11.15;49.70;99157.55;113877;1192;111199;-70
2021/10/31 02:48:15;;;;;;;24.90;12.20;;;;;;;11.19;49.75;99158.91;113893;1193;95077;-69
2021/10/31 02:50:46;;;;;;;25.80;13.10;;;;;;;11.22;49.71;99159.17;113899;1192;107736;-70
2021/10/31 02:53:13;;;;;;;26.70;12.70;;;;;;;11.25;49.69;99164.50;113924;1192;98236;-71
2021/10/31 02:56:23;;;;;;;28.40;13.50;;;;;;;11.27;49.70;99167.56;113224;1193;97651;-70
2021/10/31 02:59:00;;;;;;;31.60;14.60;;;;;;;11.29;49.67;99170.73;113238;1192;111247;-71
2021/10/31 03:01:30;;;;;;;26.10;12.60;;;;;;;11.30;49.68;99175.61;113389;1192;96261;-69
2021/10/31 03:03:59;;;;;;;27.60;13.30;;;;;;;11.31;49.69;99177.36;115335;1192;107479;-70
2021/10/31 03:06:27;;;;;;;27.30;12.80;;;;;;;11.30;49.76;99181.48;114273;1192;95394;-71
2021/10/31 03:08:55;;;;;;;28.60;13.50;;;;;;;11.30;49.69;99182.03;113814;1193;97576;-70
2021/10/31 03:11:26;;;;;;;27.70;13.00;;;;;;;11.30;49.77;99186.34;113861;1192;111326;-70
2021/10/31 03:13:55;;;;;;;25.30;12.90;;;;;;;11.29;49.75;99193.08;113603;1192;97477;-69
2021/10/31 03:16:23;;;;;;;28.00;13.00;;;;;;;11.29;49.72;99190.27;113828;1193;108025;-71
2021/10/31 03:18:51;;;;;;;28.10;13.90;;;;;;;11.29;49.79;99197.90;113879;1192;95388;-70
2021/10/31 03:21:19;;;;;;;29.50;13.00;;;;;;;11.28;49.78;99202.96;113425;1193;97658;-70
2021/10/31 03:23:47;;;;;;;24.90;12.70;;;;;;;11.26;49.76;99200.77;113423;1192;111196;-70
2021/10/31 03:26:15;;;;;;;26.50;13.30;;;;;;;11.23;49.66;99200.46;113438;1192;97552;-70
2021/10/31 03:28:43;;;;;;;24.90;12.80;;;;;;;11.19;49.73;99202.02;113729;1192;107529;-69
2021/10/31 03:31:11;;;;;;;24.90;12.60;;;;;;;11.15;49.69;99200.19;113788;1192;96154;-69
2021/10/31 03:33:39;;;;;;;25.80;13.80;;;;;;;11.12;49.69;99199.48;113775;1192;97669;-71
2021/10/31 03:36:07;;;;;;;25.20;12.90;;;;;;;11.10;49.76;99200.73;113843;1192;111074;-70
2021/10/31 03:38:35;;;;;;;27.10;14.10;;;;;;;11.07;49.81;99205.91;113892;1192;95039;-72
2021/10/31 03:41:03;;;;;;;25.90;13.20;;;;;;;11.01;49.77;99208.79;113933;1192;107495;-69
2021/10/31 03:43:31;;;;;;;25.60;12.90;;;;;;;10.95;49.90;99208.52;113964;1192;97556;-71
2021/10/31 03:46:00;;;;;;;27.30;13.30;;;;;;;10.89;49.93;99216.61;114064;1187;95723;-70
2021/10/31 03:48:28;;;;;;;26.80;12.50;;;;;;;10.83;49.93;99215.59;113941;1192;111813;-68
2021/10/31 03:50:56;;;;;;;27.30;13.20;;;;;;;10.81;50.03;99215.77;113919;1192;97614;-72
2021/10/31 03:53:25;;;;;;;25.80;13.40;;;;;;;10.80;49.92;99209.97;113870;1192;107129;-71
2021/10/31 03:55:53;;;;;;;26.80;13.40;;;;;;;10.79;49.95;99210.20;113922;1192;97649;-71
2021/10/31 03:58:21;;;;;;;26.10;13.80;;;;;;;10.78;50.01;99206.04;113854;1192;97588;-70
2021/10/31 04:00:49;;;;;;;27.80;13.30;;;;;;;10.78;50.03;99207.30;114014;1179;111710;-70
2021/10/31 04:03:17;;;;;;;23.30;12.20;;;;;;;10.78;50.16;99205.63;113930;1192;97585;-67
2021/10/31 04:05:46;;;;;;;26.00;13.30;;;;;;;10.80;50.07;99203.98;113849;1193;108060;-67
2021/10/31 04:08:14;;;;;;;26.80;13.70;;;;;;;10.81;50.21;99203.51;113841;1193;95061;-65
2021/10/31 04:10:42;;;;;;;26.20;12.80;;;;;;;10.82;50.18;99200.02;113854;1193;97592;-70
2021/10/31 04:13:11;;;;;;;23.00;11.90;;;;;;;10.84;50.18;99196.21;113821;1192;111501;-70
2021/10/31 04:15:42;;;;;;;26.70;13.20;;;;;;;10.83;50.19;99198.23;113888;1192;96498;-71
2021/10/31 04:18:10;;;;;;;26.80;13.20;;;;;;;10.81;50.15;99198.19;113850;1193;107525;-71
2021/10/31 04:20:38;;;;;;;25.40;13.40;;;;;;;10.79;50.28;99193.20;113858;1192;95119;-70
2021/10/31 04:23:06;;;;;;;25.60;12.40;;;;;;;10.76;50.38;99198.16;113850;1192;97617;-70
2021/10/31 04:25:34;;;;;;;25.20;12.40;;;;;;;10.73;50.52;99198.36;113872;1193;111107;-70
2021/10/31 04:28:02;;;;;;;24.40;12.40;;;;;;;10.70;50.54;99200.02;113861;1193;97580;-70
2021/10/31 04:30:30;;;;;;;28.00;13.50;;;;;;;10.68;50.47;99205.45;113868;1193;107520;-70
2021/10/31 04:32:58;;;;;;;24.30;12.80;;;;;;;10.66;50.53;99210.77;113826;1193;95049;-67
2021/10/31 04:35:26;;;;;;;26.00;13.60;;;;;;;10.63;50.46;99203.67;113835;1192;97627;-69
2021/10/31 04:37:57;;;;;;;26.20;13.00;;;;;;;10.61;50.63;99206.33;113828;1192;111515;-69
2021/10/31 04:40:25;;;;;;;26.70;13.10;;;;;;;10.57;50.86;99203.41;113851;1192;95042;-68
2021/10/31 04:42:53;;;;;;;27.40;14.20;;;;;;;10.54;50.85;99199.73;113852;1192;106570;-69
2021/10/31 04:45:22;;;;;;;29.80;13.80;;;;;;;10.49;50.68;99203.77;113814;1192;97515;-68
2021/10/31 04:47:50;;;;;;;30.10;13.20;;;;;;;10.45;50.75;99200.86;113829;1192;97951;-69
2021/10/31 04:50:19;;;;;;;27.90;12.90;;;;;;;10.42;50.82;99192.21;113829;1193;110695;-69
2021/10/31 04:52:47;;;;;;;27.60;13.70;;;;;;;10.41;51.00;99191.91;113798;1193;97533;-69
2021/10/31 04:55:15;;;;;;;29.40;14.20;;;;;;;10.39;51.06;99193.48;113787;1192;107289;-69
2021/10/31 04:57:43;;;;;;;29.60;14.30;;;;;;;10.38;51.01;99189.66;113340;1193;97669;-70
2021/10/31 05:00:12;;;;;;;25.70;13.60;;;;;;;10.36;51.10;99184.44;113821;1192;94933;-69
2021/10/31 05:02:40;;;;;;;26.90;13.30;;;;;;;10.35;51.07;99185.38;113840;1193;109883;-70
2021/10/31 05:05:09;;;;;;;27.20;12.80;;;;;;;10.35;51.07;99186.66;113819;1192;97669;-69
2021/10/31 05:07:37;;;;;;;26.00;13.10;;;;;;;10.36;51.22;99184.48;113339;1193;107820;-70
2021/10/31 05:10:06;;;;;;;25.50;12.80;;;;;;;10.36;51.22;99185.13;113808;1192;98259;-71
2021/10/31 05:12:33;;;;;;;26.40;12.50;;;;;;;10.37;51.26;99186.17;113770;1192;97622;-70
2021/10/31 05:15:02;;;;;;;28.20;13.60;;;;;;;10.36;51.20;99187.98;113476;1193;111198;-71
2021/10/31 05:17:32;;;;;;;25.90;12.50;;;;;;;10.35;51.15;99186.80;113891;1192;97506;-72
2021/10/31 05:20:01;;;;;;;28.20;13.70;;;;;;;10.34;51.20;99192.02;113852;1192;107502;-68
2021/10/31 05:22:29;;;;;;;26.60;12.70;;;;;;;10.33;51.26;99190.16;113884;1192;97651;-71
2021/10/31 05:24:57;;;;;;;25.90;12.60;;;;;;;10.34;51.26;99190.30;113574;1192;97556;-69
2021/10/31 05:27:25;;;;;;;29.00;12.80;;;;;;;10.37;51.41;99186.33;113777;1193;111262;-71
2021/10/31 05:29:53;;;;;;;25.90;13.10;;;;;;;10.42;51.43;99184.54;113434;1193;97745;-69
2021/10/31 05:32:21;;;;;;;23.60;12.50;;;;;;;10.48;51.57;99186.67;113845;1193;107525;-71
2021/10/31 05:34:50;;;;;;;26.60;13.60;;;;;;;10.53;51.51;99195.70;113839;1192;97727;-70
2021/10/31 05:37:18;;;;;;;28.30;13.60;;;;;;;10.56;51.48;99193.55;113841;1193;97644;-71
2021/10/31 05:39:45;;;;;;;27.30;12.60;;;;;;;10.60;51.52;99194.55;113851;1193;110990;-70
2021/10/31 05:42:13;;;;;;;26.60;14.10;;;;;;;10.62;51.47;99197.24;113832;1192;97492;-73
2021/10/31 05:44:41;;;;;;;27.50;14.10;;;;;;;10.63;51.56;99199.77;113791;1192;107528;-68
2021/10/31 05:47:09;;;;;;;28.60;13.10;;;;;;;10.64;51.60;99200.08;113705;1192;95135;-73
2021/10/31 05:49:37;;;;;;;29.40;14.70;;;;;;;10.65;51.55;99204.63;113807;1193;97660;-65
2021/10/31 05:52:06;;;;;;;28.50;13.40;;;;;;;10.65;51.54;99206.23;113855;1192;111170;-66
2021/10/31 05:54:34;;;;;;;30.00;14.40;;;;;;;10.64;51.59;99213.38;113906;1192;95078;-71
2021/10/31 05:57:02;;;;;;;26.00;13.00;;;;;;;10.63;51.52;99211.33;113809;1192;107501;-70
2021/10/31 05:59:34;;;;;;;25.40;13.20;;;;;;;10.59;51.52;99211.77;113631;1192;97675;-69
2021/10/31 06:02:03;;;;;;;27.80;13.20;;;;;;;10.56;51.57;99213.06;113438;1193;95044;-70
2021/10/31 06:04:32;;;;;;;29.40;15.50;;;;;;;10.54;51.58;99213.73;113824;1192;111140;-72
2021/10/31 06:07:00;;;;;;;24.10;12.40;;;;;;;10.52;51.61;99215.14;113748;1192;96477;-69
2021/10/31 06:09:28;;;;;;;28.00;13.50;;;;;;;10.51;51.65;99217.13;113795;1192;107608;-67
2021/10/31 06:11:56;;;;;;;27.00;13.80;;;;;;;10.50;51.74;99218.96;113647;1192;97547;-69
2021/10/31 06:14:25;;;;;;;29.00;13.60;;;;;;;10.49;51.71;99219.39;113783;1192;97624;-69
2021/10/31 06:16:55;;;;;;;26.30;13.30;;;;;;;10.47;51.65;99227.14;113791;1193;111719;-69
2021/10/31 06:19:23;;;;;;;27.10;13.60;;;;;;;10.48;51.79;99233.11;113833;1193;96497;-68
2021/10/31 06:21:51;;;;;;;24.90;13.20;;;;;;;10.48;51.78;99242.33;113761;1193;108137;-67
2021/10/31 06:24:19;;;;;;;26.90;13.40;;;;;;;10.48;51.75;99242.48;113683;1187;97687;-67
2021/10/31 06:26:47;;;;;;;25.90;13.40;;;;;;;10.49;51.78;99241.54;113883;1192;94996;-69
2021/10/31 06:29:16;;;;;;;29.80;14.10;;;;;;;10.49;51.72;99243.84;113797;1193;110182;-69
2021/10/31 06:31:43;;;;;;;26.10;13.40;;;;;;;10.50;51.83;99245.39;113888;1192;97550;-69
2021/10/31 06:34:11;;;;;;;27.90;12.30;;;;;;;10.55;51.83;99245.23;113813;1193;106327;-68
2021/10/31 06:36:39;;;;;;;25.10;13.80;;;;;;;10.60;51.92;99247.34;113473;1193;97610;-71
2021/10/31 06:39:07;;;;;;;27.30;13.20;;;;;;;10.65;51.89;99248.42;113782;1193;97647;-72
2021/10/31 06:41:35;;;;;;;24.40;12.70;;;;;;;10.69;51.98;99246.77;113946;1193;111166;-69
2021/10/31 06:44:08;;;;;;;29.70;13.40;;;;;;;10.71;51.81;99244.83;113965;1192;96030;-68
2021/10/31 06:46:35;;;;;;;26.10;13.10;;;;;;;10.75;51.90;99237.44;113854;1193;107555;-68
2021/10/31 06:49:05;;;;;;;25.20;12.40;;;;;;;10.80;51.95;99232.29;113611;1192;95125;-68
2021/10/31 06:51:33;;;;;;;25.90;13.40;;;;;;;10.86;52.09;99237.70;113770;1193;97560;-70
2021/10/31 06:54:00;;;;;;;25.80;12.90;;;;;;;10.91;51.99;99236.86;113626;1193;109978;-70
2021/10/31 06:56:28;;;;;;;25.40;12.50;;;;;;;10.96;51.99;99234.57;113762;1192;97531;-69
2021/10/31 06:58:58;;;;;;;25.60;13.80;;;;;;;11.00;52.12;99231.43;113750;1192;107504;-68
2021/10/31 07:01:27;;;;;;;25.30;12.80;;;;;;;11.05;52.13;99234.27;113822;1193;97581;-70
2021/10/31 07:03:55;;;;;;;27.60;12.90;;;;;;;11.11;52.14;99234.20;113418;1192;97585;-70
2021/10/31 07:06:28;;;;;;;24.90;12.00;;;;;;;11.18;52.24;99234.06;113615;1192;110239;-69
2021/10/31 07:08:56;;;;;;;24.70;12.60;;;;;;;11.25;52.29;99238.18;113738;1192;97695;-71
2021/10/31 07:11:24;;;;;;;29.20;12.60;;;;;;;11.33;52.57;99240.95;113660;1192;108248;-74
2021/10/31 07:13:52;;;;;;;25.60;12.20;;;;;;;11.42;52.67;99239.23;113611;1192;97649;-70
2021/10/31 07:16:20;;;;;;;25.60;12.60;;;;;;;11.50;52.58;99242.52;113674;1192;97523;-71
2021/10/31 07:18:48;;;;;;;24.30;11.90;;;;;;;11.58;52.55;99243.02;113504;1193;111195;-71
2021/10/31 07:21:16;;;;;;;26.80;12.50;;;;;;;11.64;52.50;99243.98;113714;1192;97578;-72
2021/10/31 07:23:43;;;;;;;26.10;13.10;;;;;;;11.70;52.47;99239.27;113519;1192;107400;-72
2021/10/31 07:26:12;;;;;;;25.60;11.70;;;;;;;11.77;52.40;99236.84;113525;1192;96578;-73
2021/10/31 07:28:41;;;;;;;24.50;12.60;;;;;;;11.84;52.53;99235.95;113542;1192;97573;-72
2021/10/31 07:31:11;;;;;;;25.30;12.30;;;;;;;11.92;52.58;99235.02;113552;1192;110232;-70
2021/10/31 07:33:39;;;;;;;23.70;11.30;;;;;;;11.99;52.56;99237.17;113590;1192;96105;-76
2021/10/31 07:36:07;;;;;;;25.60;12.40;;;;;;;12.06;52.59;99236.27;113650;1192;108475;-78
2021/10/31 07:38:39;;;;;;;24.60;11.80;;;;;;;12.16;52.65;99236.44;113775;1193;97621;-71
2021/10/31 07:41:07;;;;;;;25.70;12.00;;;;;;;12.27;52.62;99235.92;113855;1193;97531;-70
2021/10/31 07:43:35;;;;;;;24.10;11.50;;;;;;;12.32;52.56;99230.80;113712;1192;110667;-69
2021/10/31 07:46:03;;;;;;;22.30;11.20;;;;;;;12.37;52.72;99224.50;113632;1193;97672;-68
2021/10/31 07:48:32;;;;;;;26.80;11.70;;;;;;;12.43;52.66;99220.30;113664;1179;108024;-69
2021/10/31 07:51:00;;;;;;;24.50;11.60;;;;;;;12.47;52.58;99218.39;113620;1193;97573;-68
2021/10/31 07:53:29;;;;;;;26.90;12.40;;;;;;;12.51;52.58;99214.15;113782;1193;96698;-67
2021/10/31 07:55:57;;;;;;;26.40;12.20;;;;;;;12.56;52.44;99219.69;113721;1192;111732;-69
2021/10/31 07:58:26;;;;;;;24.50;12.30;;;;;;;12.61;52.44;99216.61;113777;1192;97548;-71
2021/10/31 08:00:54;;;;;;;24.90;12.50;;;;;;;12.68;52.38;99224.27;113759;1193;107519;-68
2021/10/31 08:03:23;;;;;;;25.70;11.70;;;;;;;12.74;52.39;99226.80;113710;1192;97551;-68
2021/10/31 08:05:50;;;;;;;23.30;11.20;;;;;;;12.79;52.35;99224.23;113617;1193;97007;-67
2021/10/31 08:08:21;;;;;;;25.30;11.80;;;;;;;12.85;52.28;99229.46;113740;1193;111127;-69
2021/10/31 08:10:49;;;;;;;23.40;11.90;;;;;;;12.91;52.31;99229.58;113808;1193;97707;-68
2021/10/31 08:13:26;;;;;;;23.90;11.60;;;;;;;12.97;52.30;99231.00;113741;1193;107868;-69
2021/10/31 08:15:55;;;;;;;23.20;11.30;;;;;;;13.03;52.28;99228.45;113717;1192;97566;-69
2021/10/31 08:18:24;;;;;;;26.20;12.20;;;;;;;13.10;52.13;99226.44;113831;1192;96241;-69
2021/10/31 08:20:53;;;;;;;24.10;12.70;;;;;;;13.19;52.09;99222.88;113548;1193;111969;-70
2021/10/31 08:23:21;;;;;;;23.70;12.10;;;;;;;13.26;52.11;99218.42;113711;1193;97649;-69
2021/10/31 08:25:50;;;;;;;29.40;11.80;;;;;;;13.33;52.10;99220.55;113708;1192;108119;-67
2021/10/31 08:28:20;;;;;;;22.50;11.10;;;;;;;13.42;52.10;99214.64;113708;1193;97556;-69
2021/10/31 08:30:55;;;;;;;24.30;11.80;;;;;;;13.58;52.04;99219.58;113700;1193;95032;-67
2021/10/31 08:33:30;;;;;;;23.20;11.10;;;;;;;13.79;51.97;99217.98;113639;1192;111763;-68
2021/10/31 08:36:05;;;;;;;24.40;11.40;;;;;;;14.05;51.82;99217.58;113775;1192;97676;-68
2021/10/31 08:38:34;;;;;;;29.00;15.60;;;;;;;14.33;51.75;99216.64;113721;1192;108101;-68
2021/10/31 08:41:03;;;;;;;22.50;10.70;;;;;;;14.63;51.68;99217.83;113679;1192;97565;-69
2021/10/31 08:43:32;;;;;;;23.20;11.40;;;;;;;14.92;51.85;99216.82;113719;1193;97564;-69
2021/10/31 08:46:02;;;;;;;22.30;11.00;;;;;;;15.23;51.59;99214.78;113476;1193;111992;-68
2021/10/31 08:48:30;;;;;;;23.50;11.20;;;;;;;15.52;51.53;99208.22;113695;1192;97494;-68
2021/10/31 08:50:59;;;;;;;23.80;11.30;;;;;;;15.86;51.54;99208.41;113839;1193;107232;-69
2021/10/31 08:53:29;;;;;;;21.80;11.00;;;;;;;16.25;50.90;99204.43;113751;1192;97559;-69
2021/10/31 08:55:58;;;;;;;22.20;11.50;;;;;;;16.46;50.13;99202.81;113840;1193;97718;-70
2021/10/31 08:58:27;;;;;;;25.00;10.70;;;;;;;16.69;49.65;99198.52;113767;1193;111293;-68
2021/10/31 09:00:55;;;;;;;23.40;11.30;;;;;;;16.92;50.25;99198.66;113803;1192;97635;-68
2021/10/31 09:03:24;;;;;;;23.20;11.70;;;;;;;17.27;50.11;99194.86;113660;1193;108170;-69
2021/10/31 09:05:52;;;;;;;23.40;10.50;;;;;;;17.71;49.26;99189.06;113707;1192;97718;-70
2021/10/31 09:08:20;;;;;;;23.50;11.20;;;;;;;18.13;48.80;99187.73;113658;1193;96985;-69
2021/10/31 09:10:52;;;;;;;21.80;10.90;;;;;;;18.73;49.30;99190.96;113388;1193;111197;-70
2021/10/31 09:13:22;;;;;;;21.00;10.70;;;;;;;19.36;49.12;99182.20;113703;1193;96682;-68
2021/10/31 09:15:52;;;;;;;23.50;10.80;;;;;;;19.98;49.19;99180.40;113513;1193;105563;-69
2021/10/31 09:18:21;;;;;;;21.40;10.60;;;;;;;20.35;48.38;99176.47;113315;1193;98336;-67
2021/10/31 09:20:49;;;;;;;19.50;10.30;;;;;;;20.26;47.66;99176.21;113469;1192;97705;-69
2021/10/31 09:23:18;;;;;;;21.70;10.20;;;;;;;20.04;47.04;99175.20;113514;1192;111549;-68
2021/10/31 09:25:46;;;;;;;21.20;9.80;;;;;;;19.75;45.89;99169.83;113568;1192;97633;-69
2021/10/31 09:28:14;;;;;;;19.20;9.80;;;;;;;19.46;45.32;99173.52;113369;1193;108103;-69
2021/10/31 09:30:43;;;;;;;23.00;10.90;;;;;;;19.34;46.10;99172.69;113370;1192;97641;-70
2021/10/31 09:33:15;;;;;;;21.40;10.30;;;;;;;19.29;46.13;99169.81;113506;1192;97649;-70
2021/10/31 09:35:47;;;;;;;22.20;11.50;;;;;;;19.25;45.97;99161.05;113451;1193;111678;-68
2021/10/31 09:38:19;;;;;;;19.50;9.50;;;;;;;19.17;44.98;99161.00;115246;1192;96658;-69
2021/10/31 09:40:48;;;;;;;19.70;9.20;;;;;;;19.02;43.91;99159.57;115200;1192;109341;-69
2021/10/31 09:43:16;;;;;;;21.60;9.60;;;;;;;18.91;44.63;99159.21;115233;1192;96534;-68
2021/10/31 09:45:44;;;;;;;21.50;10.30;;;;;;;19.01;44.56;99154.22;115108;1193;95548;-68
2021/10/31 09:48:13;;;;;;;21.50;10.10;;;;;;;19.10;44.76;99152.66;114972;1191;111179;-70
2021/10/31 09:50:44;;;;;;;19.90;9.20;;;;;;;19.23;44.56;99156.08;113412;1192;97655;-72
2021/10/31 09:53:20;;;;;;;18.80;9.00;;;;;;;19.26;44.12;99151.58;113327;1193;108160;-69
2021/10/31 09:55:49;;;;;;;19.10;8.60;;;;;;;19.29;44.40;99147.34;113603;1192;97524;-69
2021/10/31 09:58:27;;;;;;;18.30;8.90;;;;;;;19.36;43.80;99148.08;113530;1192;95737;-69
2021/10/31 10:00:59;;;;;;;18.70;8.30;;;;;;;19.40;44.02;99148.66;113263;1192;111199;-69
2021/10/31 10:06:25;;;;;;;23.20;9.30;;;;;;;19.64;44.01;99145.58;113436;1192;108219;-69
2021/10/31 10:09:04;;;;;;;18.50;8.40;;;;;;;19.66;43.00;99142.40;113460;1192;95746;-71
2021/10/31 10:11:41;;;;;;;20.50;9.10;;;;;;;19.54;43.05;99139.47;113755;1192;98012;-70
2021/10/31 10:14:18;;;;;;;18.50;8.50;;;;;;;19.61;43.22;99136.70;113553;1193;111209;-70
2021/10/31 10:16:47;;;;;;;19.80;8.50;;;;;;;19.71;43.25;99133.20;113529;1193;97990;-69
2021/10/31 10:19:18;;;;;;;18.90;8.80;;;;;;;19.73;42.60;99132.08;113174;1193;107551;-69
2021/10/31 10:22:06;;;;;;;16.00;7.40;;;;;;;19.70;42.86;99130.63;113496;1193;98424;-69
2021/10/31 10:24:38;;;;;;;18.00;8.00;;;;;;;19.78;42.34;99128.86;113580;1193;95007;-69
2021/10/31 10:27:08;;;;;;;15.30;7.00;;;;;;;19.70;40.64;99127.59;113610;1193;111093;-70
2021/10/31 10:29:40;;;;;;;16.90;7.00;;;;;;;19.55;41.25;99124.36;113771;1193;98227;-72
2021/10/31 10:32:16;;;;;;;18.70;7.50;;;;;;;19.57;41.55;99125.23;113720;1192;107567;-71
2021/10/31 10:34:49;;;;;;;16.90;7.30;;;;;;;19.67;41.60;99123.61;113778;1193;95377;-72
2021/10/31 10:37:25;;;;;;;20.30;9.10;;;;;;;19.81;41.58;99121.55;113820;1192;95112;-70
2021/10/31 10:39:57;;;;;;;18.80;8.90;;;;;;;19.80;40.74;99114.67;113698;1193;111193;-70
2021/10/31 10:42:33;;;;;;;18.70;8.30;;;;;;;19.76;41.09;99117.61;113764;1193;97527;-69
2021/10/31 10:45:10;;;;;;;21.50;9.70;;;;;;;19.80;40.71;99116.32;113787;1193;107964;-69
2021/10/31 10:47:43;;;;;;;19.40;8.60;;;;;;;19.72;39.86;99109.79;113763;1192;97730;-68
2021/10/31 10:50:18;;;;;;;20.70;8.90;;;;;;;19.56;38.74;99109.19;113790;1193;97559;-68
2021/10/31 10:52:47;;;;;;;19.00;8.60;;;;;;;19.33;38.33;99107.22;113767;1193;111156;-69
2021/10/31 10:55:17;;;;;;;28.20;9.20;;;;;;;19.22;38.96;99104.05;113752;1192;95700;-68
2021/10/31 10:57:49;;;;;;;18.60;8.10;;;;;;;19.24;39.05;99094.36;113587;1192;108143;-69
2021/10/31 11:00:21;;;;;;;20.70;8.40;;;;;;;19.23;38.52;99092.27;113789;1192;97641;-71
2021/10/31 11:03:29;;;;;;;18.50;8.20;;;;;;;19.15;38.35;99088.84;113626;1192;97626;-71
2021/10/31 11:06:04;;;;;;;17.70;8.00;;;;;;;19.09;38.56;99087.69;112872;1197;111670;-72
2021/10/31 11:08:33;;;;;;;16.90;8.00;;;;;;;19.16;38.83;99077.74;113631;1193;97647;-70
2021/10/31 11:11:10;;;;;;;18.20;8.40;;;;;;;19.21;38.21;99078.77;113888;1193;107527;-69
2021/10/31 11:13:49;;;;;;;20.00;8.30;;;;;;;19.20;38.31;99072.42;113873;1184;95717;-68
2021/10/31 11:16:17;;;;;;;18.40;7.70;;;;;;;19.19;38.37;99071.24;113786;1192;97566;-68
2021/10/31 11:18:46;;;;;;;18.30;8.10;;;;;;;19.22;38.20;99069.36;113694;1192;111672;-69
2021/10/31 11:21:14;;;;;;;18.80;8.70;;;;;;;19.20;37.98;99064.54;113694;1192;97660;-69
2021/10/31 11:23:46;;;;;;;18.50;8.50;;;;;;;19.19;38.07;99063.88;113606;1193;108450;-68
2021/10/31 11:26:16;;;;;;;16.60;6.90;;;;;;;19.23;38.24;99062.92;115335;1192;95456;-68